429  
SXUS55 KTFX 291710  
OSOTFX  
 
AREA AWOS OBSERVATIONS  
NATIONAL WEATHER SERVICE GREAT FALLS MT  
1108 AM MDT MON MAY 29 2017  
 
METAR K6S8 291655Z AUTO 23002KT 40SM 17/05 A3021 RMK A01 T01720050  
METAR K7S0 291655Z AUTO 29002KT 40SM 21/09 A3019 RMK A01 T02110094  
METAR K7S0 291555Z AUTO 26000KT 40SM 21/09 A3020 RMK A01 T02110088  
METAR K7S1 291655Z AUTO 20003KT 40SM 16/04 A3022 RMK A01 T01610044  
METAR K97M 291655Z AUTO 32016KT 40SM 14/01 A3014 RMK A01 T01380005  
METAR K9S2 291655Z AUTO 32021KT 40SM 14/M01 A3014 RMK A01 T01441005  
METAR K9S5 291655Z AUTO 05000KT 40SM 18/07 A3022 RMK A01 T01770072  
METAR KRPX 291655Z AUTO 27003KT 40SM 17/M01 A3013 RMK A01 T01721011  
METAR KS01 291655Z AUTO 08008KT 40SM 19/12 A3021 RMK A01 T01880116  
METAR KS34 291655Z AUTO 15000KT 40SM 20/10 A3013 RMK A01 T02000100  
METAR KTHM 291555Z AUTO 07004KT 40SM 18/11 A3017 RMK A01 T01770105  
 
CLICK HERE TO GO TO PREVIOUS BULLETINS.

The Nexlab MT Page Main Text Page